Strona główna
METAR-TAF:

METAR-TAF

Lotnisko :

Port lotniczy Dżibuti-Ambouli

Dżibuti, Dżibuti

Szerokość geograficzna: 11-33N, Długość geograficzna: 043-10E, wysokość: 49 m

Aktualna obserwacja pogody

Raport powstał 1 godzina i 4 minut temu, godzina 15:00 UTC
Wiatr 8 kt od wschód
Temperatura 32°C
Wilgotność 71%
Ciśnienie 1008 hPa
Widzialność 10 km lub więcej
bezchmurnie

METAR: HDAM 231500Z 09008KT CAVOK SKC 32/26 Q1008

czas: 19:04 (16:04 UTC)

Prognoza

Raport powstał 5 godziny i 4 minut temu, godzina 11:00 UTC
Prognoza ważna od 23 godzina 12 UTC do 24 godzina 12 UTC
Wiatr 10 kt od wschód
Widzialność 10 km lub więcej
Brak chmur poniżej 1500 m i brak chmur cumulonimbus
Stopniowe zmiany
od 23 godzina 15 UTC do 23 godzina 18 UTC
Wiatr kt od północ
Mało chmury na wysokości 2300 ft

TAF: HDAM 231100Z 2312/2412 08010KT CAVOK BECMG 2315/2318 VRB03KT FEW023 BCMG2400/2406 00000KT

Obserwacja i prognoza pogody dla ponad 4000 lotnisk (raport METAR i TAF).

Dostępne stacje oznaczono żółtymi i czerwonymi punktami na mapie.

Najedź kursorem aby zobaczyć nazwę stacji.

Kliknij aby zobaczyć obserwacje i prognozy pogody.

Aby zmienić mapę: kliknij na zielony przycisk z czarnym krzyżykiem, aby powiększyć; na zielony przycisk z myślnikiem, aby pomniejszyć; na zielone strzałki, aby przejść do map sąsiednich.


METAR-TAF: